You are not logged in, Click here to log in
松山機場MYJ / RJOM 日本愛媛縣松山市
ICAO: RJOM Country: 日本愛媛縣松山市
Latitude: 33.829 Longitude: 132.704
Total Arrivals: 17 Total Departures: 20
Latest Arrival: OC1107 (RCSS-RJOM)Jason. Li Latest Departure: CIJ7833 (RJOM-RCSS)ALAN. LIU
Scenery:
METAR : RJOM 080000Z 18011KT 150V210 9999 FEW020 BKN/// 31/24 Q1008

松山機場MYJ

You are accessing this site from IP address 35.172.233.215. Virtual Airline. CMS by phpVMS.Website designed by Zumeweb and edited by Theo Bearman.
There is 0 User(s) Online: | and 15 Guest(s) Online.
All information on this site is for fight simulation purposes only. This site is for flight logging for pilots of Virtual Airline&模擬飛行論壇 FlySim only.